Time;durP1;ratioP1;P1;durP2;ratioP2;P2;SDS_P1;SDS_P2;PMS_P1;PMS_P2;Temp;Humidity;BMP_temperature;BMP_pressure;BME280_temperature;BME280_humidity;BME280_pressure;Samples;Min_cycle;Max_cycle;Signal;HPM_P1;HPM_P2
2021/12/02 00:02:22;;;;;;;1.10;1.00;;;;;;;8.04;67.94;95015.41;4952074;28;20229;-68
2021/12/02 00:04:48;;;;;;;2.13;1.03;;;;;;;8.06;68.10;95018.63;4952892;29;20190;-68
2021/12/02 00:07:14;;;;;;;1.00;0.80;;;;;;;7.94;68.72;95018.34;4952141;29;20226;-69
2021/12/02 00:09:40;;;;;;;1.53;1.07;;;;;;;8.03;68.11;95012.97;4937341;29;20852;-68
2021/12/02 00:12:07;;;;;;;1.40;1.00;;;;;;;8.09;67.94;95012.22;4953171;29;20669;-68
2021/12/02 00:14:41;;;;;;;1.07;0.80;;;;;;;8.07;67.47;95017.63;4951984;29;20202;-67
2021/12/02 00:17:16;;;;;;;0.97;0.80;;;;;;;8.08;67.80;95015.81;4952479;29;20571;-67
2021/12/02 00:22:28;;;;;;;1.87;1.40;;;;;;;7.90;67.36;95024.13;4943061;29;20525;-68
2021/12/02 00:25:00;;;;;;;1.53;0.93;;;;;;;7.56;68.72;95017.84;4920527;29;20458;-67
2021/12/02 00:27:28;;;;;;;1.00;0.90;;;;;;;7.23;69.37;95026.94;4976607;28;20498;-67
2021/12/02 00:29:57;;;;;;;1.53;1.07;;;;;;;7.46;68.67;95024.13;5003362;28;20424;-66
2021/12/02 00:32:25;;;;;;;1.00;0.80;;;;;;;7.68;67.75;95017.13;4997355;28;20575;-67
2021/12/02 00:34:51;;;;;;;1.00;0.83;;;;;;;7.75;67.59;95024.22;4988396;28;20422;-67
2021/12/02 00:37:18;;;;;;;2.03;0.90;;;;;;;7.76;67.00;95028.41;4995409;28;20515;-66
2021/12/02 00:39:44;;;;;;;2.40;0.73;;;;;;;7.65;66.94;95025.31;4995174;28;20290;-67
2021/12/02 00:42:13;;;;;;;1.43;0.90;;;;;;;7.40;67.90;95029.28;5009237;28;20427;-67
2021/12/02 00:44:39;;;;;;;1.33;0.80;;;;;;;7.49;67.74;95028.97;5012746;28;20416;-66
2021/12/02 00:47:05;;;;;;;2.10;1.10;;;;;;;7.57;67.61;95027.25;4995171;28;20430;-67
2021/12/02 00:49:31;;;;;;;2.10;0.90;;;;;;;7.58;67.06;95021.84;5011817;28;20204;-67
2021/12/02 00:51:58;;;;;;;3.43;1.10;;;;;;;7.46;67.15;95026.75;5012310;28;20195;-66
2021/12/02 00:54:25;;;;;;;1.37;0.87;;;;;;;7.33;67.76;95026.63;5012613;28;20435;-66
2021/12/02 00:56:52;;;;;;;4.00;1.20;;;;;;;6.90;69.22;95022.16;5010626;28;20423;-65
2021/12/02 00:59:18;;;;;;;2.17;1.00;;;;;;;6.88;68.74;95019.75;5008790;28;20447;-66
2021/12/02 01:01:45;;;;;;;1.30;0.87;;;;;;;6.94;68.01;95017.38;4989989;28;20949;-67
2021/12/02 01:04:13;;;;;;;7.20;1.20;;;;;;;6.68;69.69;95019.50;4975981;28;20184;-66
2021/12/02 01:06:40;;;;;;;4.83;1.07;;;;;;;6.86;68.99;95016.50;5011842;28;20439;-65
2021/12/02 01:09:07;;;;;;;1.10;0.90;;;;;;;6.73;68.98;95018.94;5011501;28;20886;-70
2021/12/02 01:11:33;;;;;;;1.20;0.90;;;;;;;6.79;68.93;95012.22;4978400;28;20443;-66
2021/12/02 01:13:58;;;;;;;2.70;1.00;;;;;;;6.32;70.40;95009.81;5011838;28;20423;-66
2021/12/02 01:16:25;;;;;;;1.30;0.90;;;;;;;5.75;72.31;95018.97;5012014;28;20195;-67
2021/12/02 01:18:51;;;;;;;1.70;0.90;;;;;;;6.23;71.11;95014.31;5011365;28;20365;-67
2021/12/02 01:21:20;;;;;;;2.90;1.20;;;;;;;6.15;71.13;95009.19;5010787;28;20451;-66
2021/12/02 01:23:50;;;;;;;1.23;0.90;;;;;;;6.38;70.16;95010.91;5008308;28;20524;-66
2021/12/02 01:26:17;;;;;;;2.40;1.03;;;;;;;6.38;70.06;95013.50;4994767;28;20442;-66
2021/12/02 01:28:43;;;;;;;1.63;1.10;;;;;;;6.21;70.28;95029.28;5006910;28;20505;-67
2021/12/02 01:31:10;;;;;;;1.53;0.93;;;;;;;5.98;71.33;95032.72;4994409;28;20877;-68
2021/12/02 01:33:38;;;;;;;1.63;0.90;;;;;;;6.02;71.32;95037.59;4994373;28;20419;-67
2021/12/02 01:36:04;;;;;;;1.10;1.00;;;;;;;6.14;70.96;95036.97;4995202;28;20478;-67
2021/12/02 01:39:13;;;;;;;7.07;1.07;;;;;;;6.42;70.23;95043.38;4986039;28;20440;-65
2021/12/02 01:41:51;;;;;;;2.23;0.90;;;;;;;6.64;69.09;95054.66;5008432;28;20490;-66
2021/12/02 01:44:19;;;;;;;1.40;1.07;;;;;;;6.47;69.73;95054.06;5012417;28;20465;-66
2021/12/02 01:46:47;;;;;;;2.23;0.83;;;;;;;6.61;70.00;95065.47;4990771;28;20439;-66
2021/12/02 01:49:14;;;;;;;1.20;1.10;;;;;;;6.33;71.83;95052.25;5000783;28;20456;-67
2021/12/02 01:55:07;;;;;;;11.50;1.10;;;;;;;5.56;73.31;95078.19;5002294;28;20778;-67
2021/12/02 01:57:34;;;;;;;2.43;1.07;;;;;;;5.53;73.94;95078.56;5006992;28;20428;-67
2021/12/02 02:00:11;;;;;;;5.80;1.00;;;;;;;5.78;73.10;95075.78;4978223;28;20475;-66
2021/12/02 02:02:39;;;;;;;5.17;1.23;;;;;;;5.53;72.48;95073.38;5012874;28;20879;-66
2021/12/02 02:05:11;;;;;;;1.77;0.80;;;;;;;5.50;72.79;95071.13;5012712;28;20438;-65
2021/12/02 02:07:41;;;;;;;3.10;0.90;;;;;;;5.00;74.89;95068.81;5012325;28;20811;-68
2021/12/02 02:10:07;;;;;;;2.67;1.07;;;;;;;5.59;73.00;95064.88;5011469;28;20515;-66
2021/12/02 02:12:33;;;;;;;2.17;0.90;;;;;;;5.30;73.74;95071.53;5012482;28;20439;-66
2021/12/02 02:15:00;;;;;;;3.07;1.50;;;;;;;5.48;73.47;95057.47;5012983;28;20211;-67
2021/12/02 02:17:29;;;;;;;3.53;1.03;;;;;;;5.54;73.60;95055.00;4973460;28;20459;-68
2021/12/02 02:19:55;;;;;;;2.23;0.80;;;;;;;5.07;74.49;95051.56;5010954;28;20558;-65
2021/12/02 02:22:23;;;;;;;4.80;0.97;;;;;;;5.45;72.79;95047.44;5008940;28;20998;-66
2021/12/02 02:24:49;;;;;;;1.00;0.70;;;;;;;5.67;72.61;95048.41;4996193;28;20415;-67
2021/12/02 02:27:15;;;;;;;2.60;1.10;;;;;;;5.83;71.83;95052.66;5005791;28;20459;-67
2021/12/02 02:29:41;;;;;;;1.97;1.00;;;;;;;5.60;72.76;95048.31;5014448;28;20442;-66
2021/12/02 02:32:07;;;;;;;2.17;1.00;;;;;;;5.56;73.08;95043.63;5014311;28;20427;-67
2021/12/02 02:34:32;;;;;;;1.60;0.90;;;;;;;5.60;73.31;95048.31;5014432;28;20199;-67
2021/12/02 02:37:02;;;;;;;1.00;0.70;;;;;;;5.95;71.73;95055.66;5002647;28;20189;-66
2021/12/02 02:39:30;;;;;;;0.90;0.70;;;;;;;5.72;72.68;95051.31;4995965;28;20286;-66
2021/12/02 02:42:00;;;;;;;1.00;0.90;;;;;;;6.19;71.41;95052.03;5011091;28;20423;-67
2021/12/02 02:44:29;;;;;;;2.03;1.00;;;;;;;6.34;70.69;95053.84;5017000;28;20838;-66
2021/12/02 02:46:55;;;;;;;1.50;0.83;;;;;;;5.98;72.07;95060.53;5008892;28;20425;-66
2021/12/02 02:49:20;;;;;;;1.10;1.00;;;;;;;6.27;71.62;95051.16;5011255;28;21041;-66
2021/12/02 02:51:46;;;;;;;1.33;0.97;;;;;;;6.26;71.28;95047.78;5014126;28;20183;-66
2021/12/02 02:54:14;;;;;;;2.43;1.20;;;;;;;6.31;70.86;95039.44;5014030;28;20666;-68
2021/12/02 02:56:50;;;;;;;1.20;1.00;;;;;;;6.35;71.08;95037.28;4992661;28;20243;-67
2021/12/02 03:04:42;;;;;;;2.67;1.07;;;;;;;5.60;74.44;95045.69;4996479;28;20428;-69
2021/12/02 03:09:57;;;;;;;4.07;1.20;;;;;;;5.44;75.58;95032.81;4993747;28;20435;-68
2021/12/02 03:12:29;;;;;;;2.57;1.13;;;;;;;5.26;75.82;95031.34;4984500;28;20434;-66
2021/12/02 03:17:28;;;;;;;2.97;1.40;;;;;;;5.50;75.00;95022.53;4997137;28;20914;-66
2021/12/02 03:19:54;;;;;;;3.63;1.13;;;;;;;5.66;73.95;95016.44;5013351;28;20509;-66
2021/12/02 03:22:20;;;;;;;3.07;1.30;;;;;;;5.73;73.48;95031.31;5015539;28;20411;-66
2021/12/02 03:24:45;;;;;;;3.50;1.40;;;;;;;5.42;74.69;95024.41;5017296;28;20173;-67
2021/12/02 03:27:11;;;;;;;4.40;1.20;;;;;;;5.84;73.06;95023.09;4994770;28;20192;-67
2021/12/02 03:29:37;;;;;;;2.23;1.10;;;;;;;5.32;74.86;95020.25;5014400;28;20196;-66
2021/12/02 03:32:04;;;;;;;3.53;1.10;;;;;;;5.13;75.91;95026.69;5016862;28;20441;-66
2021/12/02 03:34:29;;;;;;;3.23;1.03;;;;;;;5.37;75.30;95019.72;5012784;28;20511;-66
2021/12/02 03:36:55;;;;;;;1.40;1.03;;;;;;;5.84;73.21;95018.72;5007633;28;20523;-66
2021/12/02 03:39:21;;;;;;;3.63;0.93;;;;;;;5.48;74.03;95021.91;5009739;28;20207;-67
2021/12/02 03:41:46;;;;;;;1.17;0.83;;;;;;;5.52;73.81;95023.19;4992856;28;20172;-68
2021/12/02 03:44:12;;;;;;;4.17;1.00;;;;;;;5.94;73.36;95022.84;4995903;28;20176;-67
2021/12/02 03:46:39;;;;;;;2.80;0.93;;;;;;;5.63;73.67;95028.94;5010915;28;20177;-67
2021/12/02 03:49:04;;;;;;;1.50;1.00;;;;;;;5.88;72.61;95026.97;4989936;28;20196;-67
2021/12/02 03:51:30;;;;;;;1.63;0.87;;;;;;;5.94;72.85;95025.44;5008242;28;20426;-68
2021/12/02 03:53:57;;;;;;;3.33;1.00;;;;;;;6.13;71.81;95021.56;5018822;28;20252;-67
2021/12/02 03:56:23;;;;;;;1.63;0.80;;;;;;;5.86;71.92;95022.94;4996126;28;20491;-67
2021/12/02 03:58:49;;;;;;;1.57;0.80;;;;;;;6.17;71.35;95020.22;5008934;28;20432;-67
2021/12/02 04:01:16;;;;;;;3.07;0.90;;;;;;;5.89;71.77;95040.75;4996177;28;20455;-68
2021/12/02 04:03:42;;;;;;;1.40;1.00;;;;;;;5.88;72.41;95029.56;5015469;28;20438;-66
2021/12/02 04:06:08;;;;;;;1.67;0.97;;;;;;;6.11;71.45;95028.72;4961294;28;20489;-68
2021/12/02 04:08:59;;;;;;;1.33;0.90;;;;;;;6.02;72.03;95027.19;5027383;28;20444;-68
2021/12/02 04:16:40;;;;;;;2.80;1.00;;;;;;;6.22;70.93;95022.28;4996583;28;20426;-67
2021/12/02 04:19:08;;;;;;;2.47;0.80;;;;;;;5.87;71.70;95027.94;5008002;28;21206;-67
2021/12/02 04:21:34;;;;;;;3.33;0.90;;;;;;;6.19;71.26;95028.63;5012319;28;20463;-67
2021/12/02 04:24:00;;;;;;;1.00;0.83;;;;;;;5.94;71.45;95036.66;5005114;28;20427;-67
2021/12/02 04:26:26;;;;;;;2.30;1.17;;;;;;;5.85;72.37;95035.09;5012462;28;20456;-67
2021/12/02 04:28:51;;;;;;;1.30;0.80;;;;;;;6.10;71.93;95021.91;5008180;28;20498;-68
2021/12/02 04:31:17;;;;;;;1.93;0.90;;;;;;;5.43;73.94;95029.44;5012650;28;20180;-67
2021/12/02 04:33:43;;;;;;;2.40;0.97;;;;;;;5.72;73.68;95034.88;5012613;28;20267;-67
2021/12/02 04:36:08;;;;;;;2.80;0.83;;;;;;;5.95;72.51;95021.88;4994885;28;20200;-67
2021/12/02 04:38:34;;;;;;;1.43;1.00;;;;;;;5.52;73.97;95025.78;4995968;28;20294;-67
2021/12/02 04:41:00;;;;;;;3.30;0.90;;;;;;;5.56;74.76;95015.84;5007654;28;20201;-67
2021/12/02 04:43:26;;;;;;;6.60;1.20;;;;;;;5.65;74.33;95022.63;5002485;28;20850;-66
2021/12/02 04:45:52;;;;;;;1.53;1.40;;;;;;;5.52;73.63;95025.78;5006070;28;20197;-67
2021/12/02 04:48:18;;;;;;;2.60;1.00;;;;;;;5.93;72.66;95016.03;4970058;28;20312;-68
2021/12/02 04:50:44;;;;;;;2.20;1.00;;;;;;;5.32;74.88;95027.25;5000152;28;20499;-66
2021/12/02 04:53:10;;;;;;;3.50;1.17;;;;;;;5.61;74.16;95017.91;4999877;28;20271;-66
2021/12/02 04:55:35;;;;;;;2.13;1.20;;;;;;;5.65;73.73;95017.41;5000549;28;20859;-66
2021/12/02 04:58:01;;;;;;;1.60;1.33;;;;;;;5.50;73.80;95019.94;4992386;28;20275;-67
2021/12/02 05:00:27;;;;;;;1.63;1.50;;;;;;;5.24;76.04;95028.09;4975675;28;20684;-67
2021/12/02 05:02:52;;;;;;;2.33;1.00;;;;;;;5.38;74.60;95021.34;4960941;28;20499;-68
2021/12/02 05:05:18;;;;;;;2.27;1.17;;;;;;;5.63;73.61;95016.78;4998621;28;20185;-66
2021/12/02 05:07:44;;;;;;;3.43;1.20;;;;;;;5.54;74.87;95018.63;4974401;28;20664;-67
2021/12/02 05:10:10;;;;;;;2.33;1.10;;;;;;;5.34;74.85;95013.09;5008012;28;20181;-68
2021/12/02 05:12:35;;;;;;;1.40;1.10;;;;;;;5.57;74.08;95017.47;4992667;28;21020;-67
2021/12/02 05:15:02;;;;;;;1.40;1.00;;;;;;;6.03;72.33;95006.22;4976098;28;20212;-67
2021/12/02 05:17:28;;;;;;;2.93;1.27;;;;;;;5.79;73.63;95017.63;4982919;28;20196;-66
2021/12/02 05:19:53;;;;;;;1.73;1.30;;;;;;;5.62;73.62;95027.31;5011555;28;21047;-67
2021/12/02 05:22:19;;;;;;;2.27;1.27;;;;;;;5.63;74.27;95024.56;4995693;28;20237;-66
2021/12/02 05:24:44;;;;;;;2.30;1.17;;;;;;;5.06;76.07;95025.78;4992554;28;20208;-66
2021/12/02 05:27:12;;;;;;;3.07;1.00;;;;;;;5.75;73.33;95027.53;4974032;28;20255;-68
2021/12/02 05:29:38;;;;;;;2.07;1.00;;;;;;;5.66;73.71;95024.22;4985586;28;20196;-67
2021/12/02 05:32:03;;;;;;;2.10;0.97;;;;;;;5.46;74.67;95023.06;5004851;28;20431;-67
2021/12/02 05:34:29;;;;;;;1.90;1.13;;;;;;;5.74;73.89;95028.53;4976451;28;20263;-67
2021/12/02 05:36:54;;;;;;;3.67;1.53;;;;;;;5.96;72.57;95016.47;4991795;28;20227;-70
2021/12/02 05:39:20;;;;;;;3.47;1.23;;;;;;;5.49;74.44;95026.13;4999778;28;20223;-66
2021/12/02 05:41:46;;;;;;;1.67;1.00;;;;;;;5.49;74.58;95026.13;4996593;28;20236;-66
2021/12/02 05:44:12;;;;;;;2.70;1.30;;;;;;;5.97;72.83;95018.09;5003299;28;20673;-66
2021/12/02 05:46:38;;;;;;;2.10;1.10;;;;;;;5.65;73.43;95033.00;4993038;28;20416;-66
2021/12/02 05:49:04;;;;;;;7.70;1.50;;;;;;;5.89;72.53;95033.78;4983097;28;20739;-67
2021/12/02 05:51:29;;;;;;;2.90;1.07;;;;;;;5.06;74.96;95030.97;4993106;28;20942;-66
2021/12/02 05:53:55;;;;;;;2.60;1.10;;;;;;;5.00;75.79;95027.25;4993916;28;20427;-65
2021/12/02 05:56:20;;;;;;;5.90;1.63;;;;;;;5.31;73.80;95018.63;4977436;28;20246;-66
2021/12/02 05:58:46;;;;;;;4.60;1.33;;;;;;;5.08;75.91;95019.41;4992378;28;20300;-66
2021/12/02 06:01:12;;;;;;;11.67;1.97;;;;;;;5.90;72.42;95032.81;5009223;28;20656;-67
2021/12/02 06:03:38;;;;;;;6.40;1.13;;;;;;;4.91;74.72;95020.50;4995813;28;20192;-66
2021/12/02 06:06:04;;;;;;;2.07;1.20;;;;;;;4.66;77.61;95023.22;5007477;28;20195;-67
2021/12/02 06:08:30;;;;;;;2.57;1.30;;;;;;;5.10;75.48;95023.63;5003744;28;20451;-67
2021/12/02 06:10:56;;;;;;;4.40;1.07;;;;;;;5.51;73.87;95011.19;4995678;28;21111;-66
2021/12/02 06:13:21;;;;;;;1.33;1.23;;;;;;;5.27;73.77;95025.16;4986577;28;20180;-66
2021/12/02 06:15:47;;;;;;;3.33;0.97;;;;;;;4.86;75.71;95010.59;5010298;28;20189;-66
2021/12/02 06:18:13;;;;;;;3.23;1.30;;;;;;;4.74;76.09;95014.56;4979723;28;20644;-67
2021/12/02 06:20:38;;;;;;;3.37;1.30;;;;;;;5.01;75.74;95010.72;5006278;28;20261;-67
2021/12/02 06:23:04;;;;;;;1.70;0.90;;;;;;;4.63;76.01;95017.53;5011898;28;20195;-66
2021/12/02 06:27:56;;;;;;;1.97;1.10;;;;;;;4.87;75.73;95011.44;4996108;28;20208;-66
2021/12/02 06:30:24;;;;;;;2.40;1.07;;;;;;;5.21;74.42;95005.88;4995720;28;20181;-67
2021/12/02 06:32:49;;;;;;;2.50;1.30;;;;;;;4.95;73.72;95001.00;5000319;28;20558;-67
2021/12/02 06:35:15;;;;;;;2.27;0.97;;;;;;;5.28;73.83;95013.78;5007202;28;20522;-67
2021/12/02 06:37:41;;;;;;;1.30;1.03;;;;;;;4.93;75.54;95015.94;4999030;28;20180;-66
2021/12/02 06:40:08;;;;;;;2.70;1.40;;;;;;;4.65;75.60;95011.22;4990088;28;20200;-67
2021/12/02 06:42:33;;;;;;;3.93;1.30;;;;;;;5.21;74.06;95005.06;5010183;28;20181;-66
2021/12/02 06:44:59;;;;;;;1.67;1.23;;;;;;;5.01;74.84;95013.31;5014857;28;20874;-67
2021/12/02 06:47:35;;;;;;;1.77;1.20;;;;;;;4.58;76.48;95012.84;4999149;28;20188;-66
2021/12/02 06:50:03;;;;;;;1.70;1.37;;;;;;;4.97;76.55;95017.22;4989375;28;20427;-67
2021/12/02 06:52:30;;;;;;;1.73;1.40;;;;;;;4.76;76.11;95016.03;4996675;28;20431;-67
2021/12/02 06:54:56;;;;;;;3.60;1.50;;;;;;;4.90;76.19;95014.50;4995066;28;20794;-66
2021/12/02 06:57:22;;;;;;;2.30;1.10;;;;;;;4.74;76.92;95012.78;4966882;28;20522;-66
2021/12/02 06:59:47;;;;;;;1.30;1.20;;;;;;;4.90;76.05;95011.09;5014351;28;20680;-67
2021/12/02 07:02:13;;;;;;;2.10;1.13;;;;;;;5.14;74.84;95015.31;5013918;28;20571;-67
2021/12/02 07:04:39;;;;;;;1.77;1.03;;;;;;;5.08;74.74;95014.22;5014196;28;20188;-67
2021/12/02 07:07:04;;;;;;;3.60;1.43;;;;;;;4.99;75.20;95020.44;5015347;28;20180;-67
2021/12/02 07:09:30;;;;;;;2.83;1.33;;;;;;;4.78;75.17;95012.47;5014636;28;20211;-66
2021/12/02 07:11:55;;;;;;;1.07;0.97;;;;;;;4.71;75.62;95013.13;4993417;28;20671;-67
2021/12/02 07:14:22;;;;;;;4.80;1.10;;;;;;;4.82;75.97;95014.53;5006134;28;20757;-68
2021/12/02 07:16:48;;;;;;;2.23;1.20;;;;;;;4.65;75.66;95020.78;5014821;28;20204;-67
2021/12/02 07:19:14;;;;;;;5.13;1.07;;;;;;;4.37;76.69;95016.84;5014498;28;20582;-68
2021/12/02 07:21:40;;;;;;;1.50;1.30;;;;;;;4.75;75.98;95014.41;5007214;28;20693;-66
2021/12/02 07:24:09;;;;;;;1.00;0.90;;;;;;;4.82;75.09;95013.72;5014028;28;20181;-67
2021/12/02 07:26:40;;;;;;;2.70;1.00;;;;;;;4.57;76.13;95012.06;4971295;28;20436;-68
2021/12/02 07:29:15;;;;;;;4.80;1.13;;;;;;;4.25;76.92;95006.00;5015534;28;20443;-68
2021/12/02 07:31:42;;;;;;;1.30;1.00;;;;;;;4.57;76.70;95011.22;5006923;28;20842;-67
2021/12/02 07:34:09;;;;;;;1.30;0.90;;;;;;;4.74;75.57;95012.78;4996935;28;20431;-66
2021/12/02 07:36:35;;;;;;;1.83;1.10;;;;;;;4.79;75.15;95019.28;5011938;28;20466;-67
2021/12/02 07:39:04;;;;;;;1.50;1.20;;;;;;;5.03;74.17;95011.34;5013280;28;20789;-66
2021/12/02 07:41:29;;;;;;;1.73;1.13;;;;;;;4.78;75.18;95013.25;4995885;28;20459;-68
2021/12/02 07:43:55;;;;;;;2.00;1.10;;;;;;;5.24;74.54;95009.91;5015642;28;20448;-67
2021/12/02 07:46:20;;;;;;;5.03;1.20;;;;;;;4.37;76.86;95014.25;5013625;28;20199;-66
2021/12/02 07:48:46;;;;;;;1.67;1.10;;;;;;;5.00;75.21;95011.69;4983223;28;20196;-67
2021/12/02 07:51:17;;;;;;;1.27;1.17;;;;;;;5.16;74.64;95023.75;4977050;28;20180;-68
2021/12/02 07:53:45;;;;;;;1.83;1.50;;;;;;;4.86;75.08;95021.00;4977621;28;20192;-65
2021/12/02 07:56:13;;;;;;;1.80;1.43;;;;;;;4.89;74.58;95025.84;4978576;28;20423;-67
2021/12/02 07:58:45;;;;;;;2.90;1.30;;;;;;;4.70;75.66;95029.66;4961789;28;20450;-67
2021/12/02 08:01:11;;;;;;;2.17;1.00;;;;;;;5.05;73.87;95027.53;5002911;28;20464;-68
2021/12/02 08:03:43;;;;;;;6.33;2.30;;;;;;;5.48;73.27;95028.91;4987251;28;20834;-66
2021/12/02 08:06:11;;;;;;;3.60;1.50;;;;;;;5.82;71.86;95040.66;4995315;28;20484;-69
2021/12/02 08:08:37;;;;;;;3.27;1.53;;;;;;;5.82;71.86;95040.66;5013058;28;20529;-66
2021/12/02 08:11:05;;;;;;;1.90;1.50;;;;;;;5.67;71.35;95043.22;4995211;28;20430;-67
2021/12/02 08:13:31;;;;;;;1.57;1.30;;;;;;;5.79;72.04;95046.22;5012850;28;20435;-65
2021/12/02 08:15:57;;;;;;;6.50;1.53;;;;;;;5.54;72.63;95043.81;5009650;28;20510;-66
2021/12/02 08:18:23;;;;;;;2.60;1.50;;;;;;;5.64;71.76;95039.19;4985602;28;20443;-67
2021/12/02 08:20:48;;;;;;;1.30;1.10;;;;;;;4.96;74.09;95041.56;5012392;28;20474;-67
2021/12/02 08:23:14;;;;;;;4.23;1.50;;;;;;;5.16;74.06;95041.13;5012276;28;20776;-68
2021/12/02 08:25:40;;;;;;;4.13;1.70;;;;;;;5.83;72.34;95044.88;5003070;28;20910;-67
2021/12/02 08:28:06;;;;;;;4.40;1.80;;;;;;;5.68;72.20;95050.81;5010671;28;20200;-68
2021/12/02 08:30:34;;;;;;;6.00;1.83;;;;;;;5.87;72.74;95051.34;5012842;28;20416;-66
2021/12/02 08:33:01;;;;;;;1.80;1.70;;;;;;;6.05;71.69;95043.25;4995217;28;20192;-68
2021/12/02 08:35:27;;;;;;;2.23;1.53;;;;;;;6.07;71.97;95043.06;5012763;28;20423;-68
2021/12/02 08:37:57;;;;;;;1.43;1.33;;;;;;;6.11;72.13;95041.72;5004935;28;20435;-66
2021/12/02 08:40:31;;;;;;;2.13;1.93;;;;;;;6.32;71.35;95040.22;5008996;28;20464;-67
2021/12/02 08:42:56;;;;;;;2.33;1.93;;;;;;;6.49;70.31;95049.47;5007727;28;20435;-66
2021/12/02 08:45:22;;;;;;;4.90;1.70;;;;;;;5.74;73.36;95049.31;5012715;28;20518;-67
2021/12/02 08:47:48;;;;;;;2.00;1.70;;;;;;;6.16;72.12;95047.22;5004871;28;20259;-67
2021/12/02 08:50:19;;;;;;;3.83;2.17;;;;;;;5.91;72.49;95059.59;5005275;28;20184;-68
2021/12/02 08:52:46;;;;;;;6.17;2.13;;;;;;;6.71;70.03;95046.94;5005563;28;20709;-66
2021/12/02 08:55:13;;;;;;;5.93;2.67;;;;;;;6.66;70.27;95051.91;4995389;28;20439;-67
2021/12/02 08:57:38;;;;;;;1.47;1.37;;;;;;;6.82;69.03;95045.69;4992537;28;20423;-66
2021/12/02 09:00:06;;;;;;;3.30;1.63;;;;;;;6.68;70.05;95050.72;5011840;28;20451;-67
2021/12/02 09:02:32;;;;;;;2.57;1.40;;;;;;;6.44;71.23;95046.59;4994032;28;20211;-66
2021/12/02 09:04:57;;;;;;;2.43;1.63;;;;;;;6.77;69.69;95043.63;4994872;28;21029;-68
2021/12/02 09:07:24;;;;;;;1.80;1.60;;;;;;;6.94;69.10;95051.22;4995570;28;20195;-68
2021/12/02 09:09:49;;;;;;;2.43;1.80;;;;;;;7.01;69.17;95046.91;5013261;28;20192;-68
2021/12/02 09:12:15;;;;;;;2.57;1.20;;;;;;;6.76;69.18;95042.03;5012405;28;20445;-68
2021/12/02 09:14:41;;;;;;;4.73;2.97;;;;;;;7.09;69.09;95044.19;5012231;28;20241;-68
2021/12/02 09:17:06;;;;;;;2.30;1.93;;;;;;;7.34;68.29;95049.06;5003965;28;20696;-68
2021/12/02 09:19:32;;;;;;;1.93;1.50;;;;;;;7.47;67.91;95051.03;5011145;28;20196;-67
2021/12/02 09:21:58;;;;;;;2.27;1.97;;;;;;;7.14;67.93;95049.69;5007897;28;20222;-67
2021/12/02 09:24:24;;;;;;;1.80;1.67;;;;;;;7.31;67.80;95055.47;5012518;28;20191;-67
2021/12/02 09:26:52;;;;;;;7.67;2.97;;;;;;;6.91;69.27;95058.44;4993374;28;20426;-67
2021/12/02 09:29:19;;;;;;;2.10;1.90;;;;;;;7.28;67.62;95055.03;5012039;28;20197;-67
2021/12/02 09:31:46;;;;;;;3.23;1.60;;;;;;;7.19;67.90;95057.72;4995203;28;20462;-69
2021/12/02 09:34:12;;;;;;;7.03;1.70;;;;;;;6.50;70.09;95055.47;5012614;28;20438;-68
2021/12/02 09:36:37;;;;;;;1.27;1.10;;;;;;;6.63;69.96;95067.88;5014541;28;20447;-68
2021/12/02 09:39:05;;;;;;;4.07;1.83;;;;;;;7.25;68.30;95065.81;4981803;28;20745;-67
2021/12/02 09:41:31;;;;;;;1.77;1.63;;;;;;;6.43;70.13;95065.78;5015982;28;20525;-68
2021/12/02 09:43:57;;;;;;;2.17;1.97;;;;;;;6.45;70.93;95069.84;4998823;28;20446;-68
2021/12/02 09:46:22;;;;;;;3.27;1.83;;;;;;;6.48;70.77;95060.88;4997509;28;20243;-67
2021/12/02 09:48:48;;;;;;;3.40;1.43;;;;;;;6.15;71.17;95067.22;5009458;28;20239;-66
2021/12/02 09:51:22;;;;;;;1.50;1.30;;;;;;;6.59;69.91;95051.81;5008110;28;20882;-67
2021/12/02 09:56:34;;;;;;;3.40;2.00;;;;;;;6.45;70.05;95046.44;4999822;28;20417;-67
2021/12/02 09:59:07;;;;;;;2.37;1.70;;;;;;;6.18;71.88;95047.81;4982049;28;20521;-69
2021/12/02 10:01:50;;;;;;;1.33;1.23;;;;;;;5.98;71.77;95053.53;5013274;28;20960;-67
2021/12/02 10:04:15;;;;;;;2.63;1.90;;;;;;;5.62;73.21;95046.34;5014839;28;20416;-67
2021/12/02 10:06:42;;;;;;;2.90;1.33;;;;;;;6.11;72.33;95052.13;4992410;28;20449;-68
2021/12/02 10:09:16;;;;;;;6.20;1.80;;;;;;;6.08;72.76;95058.50;4999271;28;20253;-67
2021/12/02 10:11:54;;;;;;;2.17;1.40;;;;;;;5.67;73.16;95071.81;5008664;28;20423;-68
2021/12/02 10:14:34;;;;;;;7.87;6.07;;;;;;;5.76;73.70;95088.16;5020496;28;20442;-67
2021/12/02 10:17:25;;;;;;;2.13;1.93;;;;;;;4.89;74.19;95095.94;5018607;28;20423;-66
2021/12/02 10:23:22;;;;;;;3.83;1.30;;;;;;;4.03;76.10;95102.63;4940612;29;20527;-69
2021/12/02 10:25:58;;;;;;;2.60;1.00;;;;;;;4.31;74.97;95103.06;4933462;29;20423;-67
2021/12/02 10:28:25;;;;;;;1.30;1.20;;;;;;;4.11;75.78;95095.66;4911208;29;20872;-68
2021/12/02 10:30:54;;;;;;;1.27;1.17;;;;;;;3.83;77.03;95093.38;4920144;29;20431;-67
2021/12/02 10:33:41;;;;;;;2.07;1.30;;;;;;;4.48;74.96;95092.66;4905134;29;20509;-68
2021/12/02 10:36:22;;;;;;;2.57;1.20;;;;;;;4.67;75.12;95089.69;4909209;29;20578;-66
2021/12/02 10:38:48;;;;;;;1.67;1.30;;;;;;;4.72;74.90;95089.19;4920443;29;20454;-66
2021/12/02 10:41:22;;;;;;;3.20;1.30;;;;;;;4.01;76.46;95092.41;4940934;29;20534;-67
2021/12/02 10:44:08;;;;;;;1.60;1.50;;;;;;;4.56;75.18;95083.06;4937281;29;20415;-67
2021/12/02 10:46:36;;;;;;;10.37;1.17;;;;;;;4.50;75.92;95077.75;4916296;29;20424;-67
2021/12/02 10:49:03;;;;;;;1.00;0.90;;;;;;;4.22;75.16;95076.31;4928491;29;20458;-67
2021/12/02 10:51:38;;;;;;;3.20;0.83;;;;;;;4.33;76.52;95075.19;4927076;29;20494;-67
2021/12/02 10:54:08;;;;;;;3.40;0.83;;;;;;;4.25;76.44;95083.78;4928322;29;20431;-67
2021/12/02 10:56:36;;;;;;;1.53;1.10;;;;;;;4.21;76.59;95085.09;4932275;29;20836;-66
2021/12/02 10:59:22;;;;;;;4.60;0.90;;;;;;;4.36;76.10;95084.41;4972116;28;20460;-66
2021/12/02 11:01:47;;;;;;;1.47;1.00;;;;;;;4.34;75.79;95092.38;5000780;28;20471;-68
2021/12/02 11:04:13;;;;;;;0.93;0.83;;;;;;;4.26;76.19;95087.19;5003428;28;20416;-68
2021/12/02 11:10:08;;;;;;;3.77;2.50;;;;;;;4.13;76.05;95096.28;4994344;28;20416;-67
2021/12/02 11:12:41;;;;;;;1.90;1.13;;;;;;;4.04;76.23;95084.28;5001348;28;20432;-68
2021/12/02 11:15:16;;;;;;;1.20;1.07;;;;;;;4.23;75.71;95083.13;5002268;28;20562;-69
2021/12/02 11:17:49;;;;;;;2.63;1.30;;;;;;;4.14;77.02;95078.94;5002512;28;20443;-69
2021/12/02 11:20:21;;;;;;;1.67;1.50;;;;;;;4.35;75.47;95083.59;5001623;28;20447;-67
2021/12/02 11:22:48;;;;;;;1.20;1.10;;;;;;;4.29;76.25;95082.50;4999684;28;20412;-67
2021/12/02 11:25:14;;;;;;;4.67;1.97;;;;;;;4.24;75.95;95084.75;4981354;28;20578;-67
2021/12/02 11:27:42;;;;;;;1.70;1.60;;;;;;;4.19;76.21;95081.88;4991088;28;20878;-68
2021/12/02 11:30:24;;;;;;;1.87;1.73;;;;;;;4.08;76.67;95085.59;4999133;28;20185;-68
2021/12/02 11:32:59;;;;;;;2.87;2.00;;;;;;;3.94;76.47;95078.47;4974686;28;20935;-69
2021/12/02 11:35:35;;;;;;;2.60;1.80;;;;;;;3.91;76.93;95083.97;5009729;28;20423;-68
2021/12/02 11:38:03;;;;;;;3.50;3.13;;;;;;;3.96;77.27;95084.31;5002684;28;20991;-67
2021/12/02 11:40:51;;;;;;;3.40;2.20;;;;;;;3.92;75.95;95085.59;4996527;28;20447;-67
2021/12/02 11:43:19;;;;;;;4.03;2.20;;;;;;;4.29;75.84;95076.47;4993500;28;20568;-68
2021/12/02 11:45:47;;;;;;;3.30;2.37;;;;;;;4.13;76.41;95075.56;4979746;28;20423;-68
2021/12/02 11:48:18;;;;;;;2.13;2.00;;;;;;;3.96;76.45;95074.75;4985503;28;20516;-69
2021/12/02 11:50:45;;;;;;;2.37;2.10;;;;;;;4.26;76.17;95069.84;4990246;28;20481;-69
2021/12/02 11:53:11;;;;;;;1.70;1.60;;;;;;;4.34;76.07;95069.03;4993728;28;20923;-67
2021/12/02 11:55:40;;;;;;;3.27;1.73;;;;;;;4.34;76.62;95068.22;4993773;28;20456;-67
2021/12/02 11:58:06;;;;;;;4.27;1.97;;;;;;;4.38;76.28;95067.72;4993876;28;21050;-67
2021/12/02 12:00:32;;;;;;;5.53;3.63;;;;;;;4.86;75.51;95064.31;5012275;28;20523;-67
2021/12/02 12:03:08;;;;;;;3.40;1.90;;;;;;;4.81;74.37;95075.22;4966408;28;20908;-67
2021/12/02 12:05:39;;;;;;;4.40;3.10;;;;;;;4.66;73.82;95072.50;4997352;28;20432;-67
2021/12/02 12:08:05;;;;;;;1.93;1.73;;;;;;;4.54;73.86;95073.81;4979863;28;20444;-68
2021/12/02 12:10:41;;;;;;;2.53;1.97;;;;;;;4.71;73.84;95070.22;4998909;28;20457;-69
2021/12/02 12:13:20;;;;;;;1.50;1.40;;;;;;;4.88;74.07;95081.34;5004461;28;20264;-67
2021/12/02 12:15:47;;;;;;;4.40;1.30;;;;;;;5.23;72.87;95083.59;4997173;28;20514;-68
2021/12/02 12:18:25;;;;;;;3.43;1.93;;;;;;;5.17;73.21;95089.47;4994197;28;20907;-68
2021/12/02 12:20:54;;;;;;;4.60;1.87;;;;;;;5.15;72.77;95092.25;4987434;28;20454;-68